createdAt,value
2019-03-20T00:00:47.810Z,71.02
2019-03-20T00:03:17.881Z,70.97
2019-03-20T00:05:48.793Z,70.47
2019-03-20T00:08:18.840Z,65.08
2019-03-20T00:10:49.084Z,85.20
2019-03-20T00:13:19.450Z,119.17
2019-03-20T00:15:49.380Z,153.50
2019-03-20T00:18:19.422Z,166.95
2019-03-20T00:20:49.656Z,260.93
2019-03-20T00:23:19.844Z,165.22
2019-03-20T00:25:50.137Z,109.05
2019-03-20T00:28:20.096Z,138.32
2019-03-20T00:30:50.504Z,188.70
2019-03-20T00:33:20.569Z,179.63
2019-03-20T00:35:50.773Z,160.80
2019-03-20T00:38:20.709Z,135.18
2019-03-20T00:40:50.538Z,91.82
2019-03-20T00:43:20.807Z,83.78
2019-03-20T00:45:51.286Z,78.55
2019-03-20T00:48:21.497Z,81.25
2019-03-20T00:50:51.785Z,82.82
2019-03-20T00:53:21.740Z,73.78
2019-03-20T00:55:51.691Z,61.28
2019-03-20T00:58:21.809Z,78.17
2019-03-20T01:00:51.964Z,81.55
2019-03-20T01:03:21.884Z,86.05
2019-03-20T01:05:52.166Z,114.03
2019-03-20T01:08:22.176Z,96.85
2019-03-20T01:10:52.131Z,80.00
2019-03-20T01:13:22.375Z,73.90
2019-03-20T01:15:52.385Z,76.65
2019-03-20T01:18:22.668Z,105.55
2019-03-20T01:20:52.944Z,153.38
2019-03-20T01:23:22.795Z,157.45
2019-03-20T01:25:53.136Z,151.37
2019-03-20T01:28:22.940Z,104.90
2019-03-20T01:30:53.123Z,126.20
2019-03-20T01:33:23.051Z,137.03
2019-03-20T01:35:53.431Z,136.55
2019-03-20T01:38:23.237Z,106.47
2019-03-20T01:40:53.248Z,103.97
2019-03-20T01:43:23.384Z,107.45
2019-03-20T01:45:53.942Z,139.35
2019-03-20T01:48:23.883Z,100.10
2019-03-20T01:50:54.109Z,90.92
2019-03-20T01:53:24.020Z,108.03
2019-03-20T01:55:54.166Z,83.62
2019-03-20T01:58:24.302Z,71.17
2019-03-20T02:00:54.531Z,92.55
2019-03-20T02:03:24.823Z,102.40
2019-03-20T02:05:54.857Z,269.48
2019-03-20T02:08:26.091Z,226.25
2019-03-20T02:10:56.088Z,167.35
2019-03-20T02:13:26.435Z,182.97
2019-03-20T02:15:56.527Z,181.65
2019-03-20T02:18:26.688Z,165.35
2019-03-20T02:20:56.991Z,151.40
2019-03-20T02:23:26.775Z,147.45
2019-03-20T02:25:56.978Z,174.38
2019-03-20T02:28:28.010Z,149.25
2019-03-20T02:30:58.536Z,130.87
2019-03-20T02:33:28.751Z,106.37
2019-03-20T02:35:58.972Z,87.75
2019-03-20T02:38:29.294Z,82.85
2019-03-20T02:40:59.515Z,80.45
2019-03-20T02:43:29.423Z,86.42
2019-03-20T02:46:00.008Z,115.77
2019-03-20T02:48:29.966Z,81.67
2019-03-20T02:51:00.083Z,65.25
2019-03-20T02:53:29.906Z,93.27
2019-03-20T02:56:00.145Z,115.00
2019-03-20T02:58:30.330Z,115.17
2019-03-20T03:01:00.549Z,119.77
2019-03-20T03:03:30.969Z,96.65
2019-03-20T03:06:06.809Z,99.20
2019-03-20T03:08:32.940Z,103.97
2019-03-20T03:11:03.107Z,110.32
2019-03-20T03:13:33.026Z,103.78
2019-03-20T03:16:03.266Z,114.12
2019-03-20T03:18:33.035Z,96.55
2019-03-20T03:21:03.361Z,72.32
2019-03-20T03:23:33.614Z,73.17
2019-03-20T03:26:03.498Z,71.60
2019-03-20T03:28:34.743Z,56.50
2019-03-20T03:31:04.759Z,56.53
2019-03-20T03:33:34.747Z,75.65
2019-03-20T03:36:20.286Z,83.45
2019-03-20T03:38:38.034Z,92.33
2019-03-20T03:41:08.390Z,72.78
2019-03-20T03:43:38.369Z,63.02
2019-03-20T03:46:08.220Z,86.00
2019-03-20T03:48:38.282Z,106.65
2019-03-20T03:51:08.506Z,103.25
2019-03-20T03:53:38.485Z,113.55
2019-03-20T03:56:08.410Z,167.68
2019-03-20T03:58:38.365Z,177.72
2019-03-20T04:01:08.591Z,199.32
2019-03-20T04:03:38.894Z,189.05
2019-03-20T04:06:08.816Z,220.02
2019-03-20T04:08:38.935Z,213.72
2019-03-20T04:11:08.827Z,243.48
2019-03-20T04:13:38.764Z,253.98
2019-03-20T04:16:08.770Z,212.53
2019-03-20T04:18:38.555Z,175.38
2019-03-20T04:21:08.569Z,192.72
2019-03-20T04:23:38.885Z,181.78
2019-03-20T04:26:08.878Z,194.75
2019-03-20T04:28:39.037Z,163.70
2019-03-20T04:31:08.971Z,160.67
2019-03-20T04:33:39.057Z,179.20
2019-03-20T04:36:09.037Z,163.40
2019-03-20T04:38:38.853Z,164.43
2019-03-20T04:41:08.900Z,154.47
2019-03-20T04:43:38.781Z,156.63
2019-03-20T04:46:08.731Z,135.70
2019-03-20T04:48:38.904Z,135.28
2019-03-20T04:51:08.791Z,148.97
2019-03-20T04:53:39.081Z,130.78
2019-03-20T04:56:09.295Z,104.38
2019-03-20T04:58:39.397Z,72.32
2019-03-20T05:01:09.655Z,114.97
2019-03-20T05:03:39.445Z,134.10
2019-03-20T05:06:09.281Z,96.28
2019-03-20T05:08:39.148Z,71.22
2019-03-20T05:11:09.231Z,136.12
2019-03-20T05:13:40.121Z,99.10
2019-03-20T05:16:10.050Z,53.45
2019-03-20T05:18:39.905Z,54.15
2019-03-20T05:21:09.737Z,97.82
2019-03-20T05:23:41.905Z,67.50
2019-03-20T05:26:11.752Z,74.35
2019-03-20T05:28:41.593Z,60.45
2019-03-20T05:31:11.715Z,59.38
2019-03-20T05:33:41.582Z,70.42
2019-03-20T05:36:11.563Z,96.30
2019-03-20T05:38:41.512Z,76.15
2019-03-20T05:41:12.528Z,77.87
2019-03-20T05:43:48.609Z,72.72
2019-03-20T05:46:18.507Z,73.30
2019-03-20T05:48:48.587Z,74.53
2019-03-20T05:51:18.486Z,75.83
2019-03-20T05:53:48.459Z,76.70
2019-03-20T05:56:18.366Z,84.95
2019-03-20T05:58:48.548Z,87.75
2019-03-20T06:01:19.730Z,90.32
2019-03-20T06:03:51.207Z,93.47
2019-03-20T06:06:21.226Z,109.78
2019-03-20T06:08:51.306Z,104.47
2019-03-20T06:11:21.111Z,97.37
2019-03-20T06:13:50.957Z,83.72
2019-03-20T06:16:21.170Z,102.35
2019-03-20T06:18:50.990Z,99.67
2019-03-20T06:21:21.093Z,104.97
2019-03-20T06:23:51.114Z,111.60
2019-03-20T06:26:21.305Z,109.60
2019-03-20T06:28:51.462Z,106.95
2019-03-20T06:31:21.406Z,101.72
2019-03-20T06:33:51.277Z,96.78
2019-03-20T06:36:21.228Z,97.20
2019-03-20T06:38:51.584Z,86.35
2019-03-20T06:41:21.931Z,78.28
2019-03-20T06:43:52.063Z,83.47
2019-03-20T06:46:23.748Z,87.40
2019-03-20T06:48:53.880Z,84.77
2019-03-20T06:51:25.018Z,70.30
2019-03-20T06:53:54.886Z,75.72
2019-03-20T06:56:24.785Z,61.95
2019-03-20T06:59:24.042Z,67.12
2019-03-20T07:01:55.129Z,63.92
2019-03-20T07:04:42.819Z,59.35
2019-03-20T07:07:21.603Z,63.35
2019-03-20T07:10:01.154Z,62.25
2019-03-20T07:12:31.515Z,54.13
2019-03-20T07:15:01.674Z,45.25
2019-03-20T07:17:31.915Z,42.23
2019-03-20T07:20:01.915Z,45.90
2019-03-20T07:22:32.001Z,40.67
2019-03-20T07:25:02.106Z,31.95
2019-03-20T07:27:33.405Z,28.75
2019-03-20T07:30:04.108Z,24.60
2019-03-20T07:32:34.031Z,29.25
2019-03-20T07:35:04.027Z,20.15
2019-03-20T07:37:34.138Z,19.50
2019-03-20T07:40:06.377Z,21.68
2019-03-20T07:42:36.515Z,19.98
2019-03-20T07:45:10.051Z,19.55
2019-03-20T07:47:40.013Z,17.85
2019-03-20T07:50:09.885Z,15.28
2019-03-20T07:52:39.906Z,16.65
2019-03-20T07:55:10.134Z,17.52
2019-03-20T07:57:39.953Z,13.62
2019-03-20T08:00:12.632Z,19.87
2019-03-20T08:02:42.687Z,14.85
2019-03-20T08:05:12.891Z,10.93
2019-03-20T08:07:42.985Z,14.30
2019-03-20T08:10:15.041Z,14.43
2019-03-20T08:12:46.274Z,11.05
2019-03-20T08:15:17.212Z,14.40
2019-03-20T08:17:47.381Z,15.40
2019-03-20T08:20:20.032Z,17.25
2019-03-20T08:22:49.919Z,15.75
2019-03-20T08:25:19.965Z,12.90
2019-03-20T08:27:50.151Z,12.35
2019-03-20T08:30:20.177Z,13.15
2019-03-20T08:32:50.552Z,12.73
2019-03-20T08:35:21.728Z,11.22
2019-03-20T08:37:52.065Z,13.18
2019-03-20T08:40:21.962Z,16.82
2019-03-20T08:42:52.177Z,11.68
2019-03-20T08:45:22.116Z,12.47
2019-03-20T08:47:52.545Z,10.60
2019-03-20T08:50:26.589Z,13.75
2019-03-20T08:52:56.758Z,10.00
2019-03-20T08:55:26.881Z,9.33
2019-03-20T08:57:56.911Z,11.65
2019-03-20T09:00:27.013Z,10.93
2019-03-20T09:02:57.433Z,10.50
2019-03-20T09:05:27.509Z,10.20
2019-03-20T09:07:57.600Z,9.25
2019-03-20T09:10:27.878Z,11.50
2019-03-20T09:12:57.975Z,7.42
2019-03-20T09:15:27.968Z,5.90
2019-03-20T09:17:58.069Z,6.12
2019-03-20T09:20:28.200Z,5.58
2019-03-20T09:22:58.006Z,6.10
2019-03-20T09:25:28.329Z,5.60
2019-03-20T09:27:58.373Z,8.03
2019-03-20T09:30:29.797Z,4.40
2019-03-20T09:33:00.126Z,4.78
2019-03-20T09:35:30.006Z,5.12
2019-03-20T09:38:00.310Z,4.30
2019-03-20T09:40:30.513Z,4.17
2019-03-20T09:43:00.629Z,2.47
2019-03-20T09:45:30.978Z,8.35
2019-03-20T09:48:00.908Z,3.58
2019-03-20T09:50:31.058Z,3.35
2019-03-20T09:53:01.178Z,9.10
2019-03-20T09:55:32.943Z,4.33
2019-03-20T09:58:11.133Z,4.67
2019-03-20T10:00:34.480Z,4.58
2019-03-20T10:03:04.782Z,3.72
2019-03-20T10:05:34.555Z,5.35
2019-03-20T10:08:04.734Z,3.12
2019-03-20T10:10:34.822Z,3.45
2019-03-20T10:13:05.040Z,6.67
2019-03-20T10:15:35.113Z,4.53
2019-03-20T10:18:06.270Z,4.67
2019-03-20T10:20:36.457Z,6.37
2019-03-20T10:23:06.517Z,4.28
2019-03-20T10:25:44.537Z,6.47
2019-03-20T10:28:08.426Z,4.70
2019-03-20T10:30:38.610Z,4.75
2019-03-20T10:33:08.788Z,8.75
2019-03-20T10:35:38.553Z,6.17
2019-03-20T10:38:08.731Z,3.30
2019-03-20T10:40:38.901Z,3.67
2019-03-20T10:43:08.988Z,3.27
2019-03-20T10:45:39.140Z,6.65
2019-03-20T10:48:09.123Z,5.78
2019-03-20T10:50:39.450Z,6.17
2019-03-20T10:53:09.450Z,5.75
2019-03-20T10:55:41.126Z,3.80
2019-03-20T10:58:11.171Z,5.83
2019-03-20T11:00:41.267Z,5.65
2019-03-20T11:03:12.869Z,7.65
2019-03-20T11:05:42.882Z,4.40
2019-03-20T11:08:13.261Z,8.03
2019-03-20T11:10:43.198Z,7.30
2019-03-20T11:13:13.530Z,4.83
2019-03-20T11:15:43.895Z,5.53
2019-03-20T11:18:14.130Z,6.30
2019-03-20T11:20:43.870Z,5.75
2019-03-20T11:23:13.749Z,5.53
2019-03-20T11:25:43.883Z,4.15
2019-03-20T11:28:14.259Z,4.65
2019-03-20T11:30:44.527Z,4.90
2019-03-20T11:33:14.527Z,5.78
2019-03-20T11:35:44.335Z,5.75
2019-03-20T11:38:14.829Z,7.10
2019-03-20T11:40:45.020Z,6.55
2019-03-20T11:43:14.985Z,8.10
2019-03-20T11:45:45.175Z,5.92
2019-03-20T11:48:15.087Z,8.45
2019-03-20T11:50:45.386Z,6.53
2019-03-20T11:53:15.228Z,7.85
2019-03-20T11:55:45.222Z,8.83
2019-03-20T11:58:15.361Z,8.85
2019-03-20T12:00:45.331Z,8.78
2019-03-20T12:03:15.465Z,8.70
2019-03-20T12:05:45.669Z,12.93
2019-03-20T12:08:17.226Z,5.80
2019-03-20T12:10:47.362Z,9.50
2019-03-20T12:13:17.291Z,7.67
2019-03-20T12:15:47.513Z,8.00
2019-03-20T12:18:17.365Z,12.23
2019-03-20T12:20:48.215Z,11.03
2019-03-20T12:23:18.044Z,12.55
2019-03-20T12:25:48.310Z,9.50
2019-03-20T12:28:18.198Z,10.58
2019-03-20T12:30:48.085Z,13.62
2019-03-20T12:33:17.900Z,9.10
2019-03-20T12:35:48.576Z,9.03
2019-03-20T12:38:18.421Z,7.72
2019-03-20T12:40:48.594Z,9.75
2019-03-20T12:43:18.930Z,8.40
2019-03-20T12:45:49.106Z,8.98
2019-03-20T12:48:19.736Z,11.63
2019-03-20T12:50:49.854Z,8.15
2019-03-20T12:53:23.283Z,8.28
2019-03-20T12:55:53.526Z,10.08
2019-03-20T12:58:23.773Z,9.45
2019-03-20T13:00:54.635Z,8.55
2019-03-20T13:03:25.106Z,8.80
2019-03-20T13:05:55.271Z,9.00
2019-03-20T13:08:25.607Z,9.20
2019-03-20T13:10:55.734Z,8.13
2019-03-20T13:13:25.693Z,54.95
2019-03-20T13:15:55.848Z,7.47
2019-03-20T13:18:25.881Z,7.78
2019-03-20T13:20:55.816Z,9.78
2019-03-20T13:23:31.563Z,7.17
2019-03-20T13:26:01.685Z,10.53
2019-03-20T13:28:31.723Z,6.05
2019-03-20T13:31:20.482Z,7.45
2019-03-20T13:33:50.400Z,5.87
2019-03-20T13:36:20.451Z,8.63
2019-03-20T13:38:50.576Z,7.12
2019-03-20T13:41:20.697Z,6.00
2019-03-20T13:43:50.800Z,5.40
2019-03-20T13:46:20.882Z,6.92
2019-03-20T13:48:50.771Z,5.95
2019-03-20T13:51:20.828Z,6.80
2019-03-20T13:53:51.022Z,10.40
2019-03-20T13:56:22.375Z,12.40
2019-03-20T13:58:52.583Z,6.25
2019-03-20T14:01:22.793Z,6.40
2019-03-20T14:03:54.014Z,7.53
2019-03-20T14:06:24.126Z,6.95
2019-03-20T14:08:54.079Z,11.15
2019-03-20T14:11:24.157Z,16.30
2019-03-20T14:13:54.134Z,10.30
2019-03-20T14:16:24.286Z,11.83
2019-03-20T14:18:54.428Z,4.37
2019-03-20T14:21:24.379Z,11.35
2019-03-20T14:23:54.449Z,5.30
2019-03-20T14:26:24.412Z,7.53
2019-03-20T14:28:54.564Z,5.83
2019-03-20T14:31:27.504Z,8.93
2019-03-20T14:33:57.369Z,6.78
2019-03-20T14:36:27.554Z,6.72
2019-03-20T14:38:57.474Z,5.20
2019-03-20T14:41:27.416Z,10.43
2019-03-20T14:43:57.380Z,7.10
2019-03-20T14:46:27.151Z,5.50
2019-03-20T14:48:58.289Z,26.50
2019-03-20T14:51:28.095Z,10.85
2019-03-20T14:53:59.311Z,6.70
2019-03-20T14:56:29.416Z,8.48
2019-03-20T14:58:59.369Z,15.65
2019-03-20T15:01:29.520Z,16.30
2019-03-20T15:03:59.650Z,13.62
2019-03-20T15:06:29.658Z,12.30
2019-03-20T15:08:59.561Z,14.50
2019-03-20T15:11:29.322Z,12.43
2019-03-20T15:13:59.218Z,5.95
2019-03-20T15:16:29.311Z,6.80
2019-03-20T15:18:59.136Z,9.08
2019-03-20T15:21:29.028Z,10.60
2019-03-20T15:23:58.979Z,6.87
2019-03-20T15:26:29.127Z,11.03
2019-03-20T15:28:59.328Z,72.12
2019-03-20T15:31:29.384Z,9.90
2019-03-20T15:34:00.562Z,25.50
2019-03-20T15:36:31.558Z,6.67
2019-03-20T15:39:01.533Z,13.43
2019-03-20T15:41:33.181Z,11.90
2019-03-20T15:44:04.571Z,11.15
2019-03-20T15:46:34.591Z,11.65
2019-03-20T15:49:04.797Z,18.37
2019-03-20T15:51:34.722Z,10.18
2019-03-20T15:54:05.807Z,22.90
2019-03-20T15:56:35.948Z,16.40
2019-03-20T15:59:05.824Z,13.28
2019-03-20T16:01:35.707Z,12.35
2019-03-20T16:04:06.082Z,13.13
2019-03-20T16:06:36.010Z,11.63
2019-03-20T16:09:08.412Z,15.13
2019-03-20T16:14:07.388Z,13.48
2019-03-20T16:16:37.563Z,24.50
2019-03-20T16:19:07.938Z,23.27
2019-03-20T16:21:37.824Z,26.45
2019-03-20T16:24:07.663Z,21.60
2019-03-20T16:26:37.515Z,20.10
2019-03-20T16:29:07.356Z,17.12
2019-03-20T16:31:37.496Z,14.07
2019-03-20T16:34:07.494Z,16.80
2019-03-20T16:36:37.419Z,12.53
2019-03-20T16:39:08.525Z,20.52
2019-03-20T16:41:38.499Z,13.35
2019-03-20T16:44:08.409Z,22.95
2019-03-20T16:46:39.344Z,35.17
2019-03-20T16:49:09.341Z,20.37
2019-03-20T16:51:39.485Z,30.97
2019-03-20T16:54:09.670Z,42.23
2019-03-20T16:56:39.571Z,19.55
2019-03-20T16:59:09.779Z,26.37
2019-03-20T17:01:39.970Z,18.98
2019-03-20T17:04:10.175Z,24.25
2019-03-20T17:06:41.669Z,17.65
2019-03-20T17:09:11.826Z,33.40
2019-03-20T17:11:41.791Z,27.93
2019-03-20T17:14:11.795Z,24.07
2019-03-20T17:16:42.614Z,15.70
2019-03-20T17:19:13.294Z,12.45
2019-03-20T17:21:44.517Z,14.73
2019-03-20T17:24:15.472Z,10.65
2019-03-20T17:26:45.719Z,13.60
2019-03-20T17:29:15.905Z,15.13
2019-03-20T17:31:45.727Z,9.88
2019-03-20T17:34:15.942Z,35.25
2019-03-20T17:36:45.758Z,25.25
2019-03-20T17:39:16.262Z,65.95
2019-03-20T17:41:46.351Z,30.43
2019-03-20T17:44:16.264Z,10.98
2019-03-20T17:46:46.240Z,10.63
2019-03-20T17:49:16.131Z,12.20
2019-03-20T17:51:46.398Z,15.58
2019-03-20T17:54:16.435Z,24.02
2019-03-20T17:56:46.475Z,21.00
2019-03-20T17:59:17.834Z,28.87
2019-03-20T18:01:47.873Z,18.75
2019-03-20T18:04:18.049Z,17.52
2019-03-20T18:06:48.246Z,17.55
2019-03-20T18:09:18.333Z,11.48
2019-03-20T18:11:48.362Z,21.00
2019-03-20T18:14:18.820Z,15.15
2019-03-20T18:16:48.845Z,10.10
2019-03-20T18:19:18.871Z,12.75
2019-03-20T18:21:48.971Z,20.50
2019-03-20T18:24:19.229Z,20.62
2019-03-20T18:26:49.069Z,10.78
2019-03-20T18:29:18.872Z,21.27
2019-03-20T18:31:48.898Z,22.70
2019-03-20T18:34:18.840Z,58.50
2019-03-20T18:36:50.248Z,22.35
2019-03-20T18:39:20.741Z,16.00
2019-03-20T18:41:57.735Z,12.93
2019-03-20T18:44:22.350Z,37.28
2019-03-20T18:46:52.320Z,31.73
2019-03-20T18:49:23.225Z,26.60
2019-03-20T18:51:53.297Z,25.37
2019-03-20T18:54:23.200Z,39.98
2019-03-20T18:56:53.091Z,36.90
2019-03-20T18:59:24.064Z,23.18
2019-03-20T19:01:53.887Z,25.75
2019-03-20T19:04:23.760Z,14.43
2019-03-20T19:06:53.674Z,19.27
2019-03-20T19:09:24.005Z,19.82
2019-03-20T19:11:53.973Z,22.00
2019-03-20T19:14:23.813Z,19.30
2019-03-20T19:16:55.124Z,21.93
2019-03-20T19:19:24.923Z,19.65
2019-03-20T19:21:54.805Z,24.92
2019-03-20T19:24:24.550Z,13.72
2019-03-20T19:26:54.313Z,18.70
2019-03-20T19:29:24.226Z,17.05
2019-03-20T19:31:55.824Z,25.80
2019-03-20T19:34:27.546Z,24.30
2019-03-20T19:36:57.441Z,20.37
2019-03-20T19:39:27.375Z,18.95
2019-03-20T19:41:57.418Z,28.85
2019-03-20T19:44:27.572Z,25.52
2019-03-20T19:46:57.365Z,20.43
2019-03-20T19:49:27.198Z,16.02
2019-03-20T19:51:59.975Z,20.10
2019-03-20T19:54:29.886Z,18.40
2019-03-20T19:56:59.837Z,18.55
2019-03-20T19:59:29.770Z,17.75
2019-03-20T20:01:59.706Z,17.05
2019-03-20T20:04:29.805Z,18.77
2019-03-20T20:06:59.592Z,16.40
2019-03-20T20:09:29.460Z,15.18
2019-03-20T20:11:59.257Z,22.65
2019-03-20T20:14:29.116Z,16.15
2019-03-20T20:16:58.843Z,15.90
2019-03-20T20:19:28.983Z,14.55
2019-03-20T20:21:58.808Z,13.98
2019-03-20T20:24:28.702Z,16.67
2019-03-20T20:26:59.580Z,19.75
2019-03-20T20:29:29.517Z,19.67
2019-03-20T20:31:59.307Z,19.30
2019-03-20T20:34:29.131Z,19.35
2019-03-20T20:36:58.987Z,18.25
2019-03-20T20:39:28.817Z,13.70
2019-03-20T20:41:58.654Z,18.25
2019-03-20T20:44:28.614Z,17.55
2019-03-20T20:46:58.772Z,15.98
2019-03-20T20:49:28.590Z,17.30
2019-03-20T20:51:58.630Z,15.30
2019-03-20T20:54:28.677Z,19.32
2019-03-20T20:56:58.405Z,16.35
2019-03-20T20:59:28.435Z,20.00
2019-03-20T21:01:58.243Z,18.87
2019-03-20T21:04:28.058Z,19.57
2019-03-20T21:06:57.801Z,29.70
2019-03-20T21:09:27.701Z,26.73
2019-03-20T21:11:57.495Z,20.52
2019-03-20T21:14:27.337Z,17.25
2019-03-20T21:16:57.155Z,19.02
2019-03-20T21:19:31.828Z,35.78
2019-03-20T21:22:19.806Z,22.95
2019-03-20T21:24:49.599Z,34.67
2019-03-20T21:27:41.639Z,32.00
2019-03-20T21:30:38.867Z,82.42
2019-03-20T21:33:19.108Z,82.25
2019-03-20T21:36:26.364Z,50.23
2019-03-20T21:38:56.224Z,141.40
2019-03-20T21:41:32.013Z,90.97
2019-03-20T21:44:27.345Z,32.33
2019-03-20T21:47:21.435Z,18.77
2019-03-20T21:49:51.272Z,19.65
2019-03-20T21:52:21.041Z,42.62
2019-03-20T21:55:10.076Z,51.42
2019-03-20T21:57:45.769Z,18.30
2019-03-20T22:00:38.171Z,21.62
2019-03-20T22:03:08.402Z,19.42
2019-03-20T22:05:41.635Z,29.15
2019-03-20T22:08:11.735Z,41.30
2019-03-20T22:10:59.972Z,28.47
2019-03-20T22:13:35.824Z,33.53
2019-03-20T22:16:42.245Z,26.30
2019-03-20T22:19:27.497Z,22.22
2019-03-20T22:22:32.274Z,29.65
2019-03-20T22:25:26.457Z,26.07
2019-03-20T22:28:17.576Z,33.25
2019-03-20T22:30:47.443Z,22.13
2019-03-20T22:33:53.687Z,31.12
2019-03-20T22:36:23.586Z,18.90
2019-03-20T22:39:12.605Z,16.95
2019-03-20T22:41:55.116Z,17.12
2019-03-20T22:47:30.221Z,21.75
2019-03-20T22:50:03.200Z,19.02
2019-03-20T22:52:47.941Z,14.95
2019-03-20T22:55:32.912Z,19.32
2019-03-20T22:58:17.701Z,20.48
2019-03-20T23:00:50.578Z,18.85
2019-03-20T23:03:24.886Z,19.60
2019-03-20T23:05:54.949Z,21.77
2019-03-20T23:08:25.016Z,19.12
2019-03-20T23:10:55.253Z,21.65
2019-03-20T23:13:25.241Z,21.05
2019-03-20T23:15:55.341Z,18.48
2019-03-20T23:18:25.204Z,20.30
2019-03-20T23:20:55.439Z,21.12
2019-03-20T23:23:25.336Z,20.32
2019-03-20T23:25:55.594Z,18.23
2019-03-20T23:28:25.930Z,21.07
2019-03-20T23:30:55.851Z,22.60
2019-03-20T23:33:25.601Z,23.38
2019-03-20T23:35:55.807Z,19.62
2019-03-20T23:38:25.703Z,22.82
2019-03-20T23:40:56.234Z,20.45
2019-03-20T23:43:27.204Z,19.30
2019-03-20T23:45:57.332Z,20.95
2019-03-20T23:48:33.221Z,20.77
2019-03-20T23:51:06.375Z,23.57
2019-03-20T23:53:37.188Z,20.72
2019-03-20T23:56:07.271Z,23.07
2019-03-20T23:58:37.165Z,20.62
